Time;durP1;ratioP1;P1;durP2;ratioP2;P2;SDS_P1;SDS_P2;PMS_P1;PMS_P2;Temp;Humidity;BMP_temperature;BMP_pressure;BME280_temperature;BME280_humidity;BME280_pressure;Samples;Min_cycle;Max_cycle;Signal;HPM_P1;HPM_P2
2022/06/05 16:52:51;;;;;;;0.10;0.10;;;;;;;31.52;36.99;100236.81;5110147;27;20656;-79
2022/06/05 16:55:18;;;;;;;0.10;0.10;;;;;;;31.43;38.58;100248.50;5111876;28;20036;-79
2022/06/05 16:57:53;;;;;;;0.10;0.10;;;;;;;31.25;38.80;100264.75;5111531;28;20031;-80
2022/06/05 17:00:29;;;;;;;0.10;0.10;;;;;;;31.30;39.58;100249.66;5110637;28;20199;-78
2022/06/05 17:03:02;;;;;;;0.10;0.10;;;;;;;31.34;40.16;100265.88;5109219;28;20051;-78
2022/06/05 17:05:29;;;;;;;0.10;0.10;;;;;;;31.28;39.04;100260.88;5110941;28;20151;-78
2022/06/05 17:08:11;;;;;;;0.10;0.10;;;;;;;31.38;40.30;100254.97;5089736;28;20040;-78
2022/06/05 17:10:51;;;;;;;0.10;0.10;;;;;;;31.15;41.90;100271.13;5089419;28;20032;-78
2022/06/05 17:13:19;;;;;;;0.10;0.10;;;;;;;30.98;43.76;100273.78;5089800;28;20032;-78
2022/06/05 17:15:53;;;;;;;0.00;0.00;;;;;;;30.65;44.79;100274.88;5090565;28;20082;-79
2022/06/05 17:18:21;;;;;;;0.10;0.10;;;;;;;30.68;44.84;100256.66;5089269;28;20036;-79
2022/06/05 17:21:06;;;;;;;0.10;0.10;;;;;;;30.74;45.05;100277.66;5089628;28;20059;-79
2022/06/05 17:24:00;;;;;;;0.10;0.10;;;;;;;30.35;45.75;100267.63;5090459;28;20081;-79
2022/06/05 17:26:53;;;;;;;0.10;0.10;;;;;;;29.99;46.46;100281.13;5075686;28;20043;-79
2022/06/05 17:29:43;;;;;;;0.10;0.10;;;;;;;29.83;46.54;100267.25;5088862;28;20117;-78
2022/06/05 17:32:33;;;;;;;0.10;0.10;;;;;;;29.72;46.79;100262.09;5090045;28;20470;-79
2022/06/05 17:35:14;;;;;;;0.10;0.10;;;;;;;29.23;47.78;100249.19;5089081;28;20463;-78
2022/06/05 17:37:54;;;;;;;0.10;0.10;;;;;;;29.24;47.55;100256.47;5090516;28;20040;-79
2022/06/05 17:40:48;;;;;;;0.10;0.10;;;;;;;29.15;48.07;100243.03;5090328;28;20029;-77
2022/06/05 17:43:47;;;;;;;0.10;0.10;;;;;;;29.06;47.51;100228.78;5088710;28;20062;-78
2022/06/05 17:46:28;;;;;;;0.10;0.10;;;;;;;29.29;47.28;100252.16;5089905;28;20062;-78
2022/06/05 17:49:11;;;;;;;0.10;0.10;;;;;;;28.82;48.20;100248.06;5088674;28;20478;-80
2022/06/05 17:51:45;;;;;;;0.10;0.10;;;;;;;28.98;47.82;100236.19;5088381;28;20139;-79
2022/06/05 17:54:23;;;;;;;0.10;0.10;;;;;;;29.04;47.43;100237.09;5089601;28;20029;-80
2022/06/05 17:56:54;;;;;;;0.10;0.10;;;;;;;28.60;47.80;100217.63;5090215;28;20028;-79
2022/06/05 17:59:47;;;;;;;0.10;0.10;;;;;;;28.60;48.17;100223.34;5088805;28;20016;-79
2022/06/05 18:02:20;;;;;;;0.10;0.10;;;;;;;28.80;47.26;100216.25;5085863;28;20064;-78
2022/06/05 18:05:01;;;;;;;0.10;0.10;;;;;;;28.85;46.86;100215.56;5075134;28;20401;-80
2022/06/05 18:07:39;;;;;;;0.10;0.10;;;;;;;28.97;46.93;100226.00;5075151;28;20125;-77
2022/06/05 18:10:18;;;;;;;0.10;0.10;;;;;;;28.92;46.95;100223.78;5076664;28;20030;-79
2022/06/05 18:12:43;;;;;;;0.10;0.10;;;;;;;28.91;46.85;100225.06;5074521;28;20020;-79
2022/06/05 18:15:20;;;;;;;0.10;0.10;;;;;;;28.97;46.49;100228.84;5076199;28;20035;-79
2022/06/05 18:17:52;;;;;;;0.00;0.00;;;;;;;28.99;45.12;100232.03;5074667;28;20062;-79
2022/06/05 18:20:21;;;;;;;0.10;0.10;;;;;;;29.08;42.44;100231.94;5075502;28;20024;-78
2022/06/05 18:22:55;;;;;;;0.10;0.10;;;;;;;28.94;39.08;100230.63;5076033;28;20032;-80
2022/06/05 18:25:50;;;;;;;0.10;0.10;;;;;;;28.96;36.63;100216.63;5075638;28;20025;-79
2022/06/05 18:28:24;;;;;;;0.10;0.10;;;;;;;29.03;36.54;100231.84;5062310;28;20067;-77
2022/06/05 18:31:13;;;;;;;0.10;0.10;;;;;;;29.03;37.39;100223.25;5075403;28;20036;-79
2022/06/05 18:33:58;;;;;;;0.10;0.10;;;;;;;29.10;37.78;100223.69;5075877;28;20060;-78
2022/06/05 18:39:17;;;;;;;0.00;0.00;;;;;;;29.14;37.50;100209.97;5075844;28;20047;-80
2022/06/05 18:41:45;;;;;;;0.10;0.10;;;;;;;29.11;36.12;100208.06;5075796;28;20027;-77
2022/06/05 18:44:25;;;;;;;0.10;0.10;;;;;;;29.09;35.65;100198.38;5074450;28;20024;-79
2022/06/05 18:46:54;;;;;;;0.10;0.10;;;;;;;29.15;36.07;100202.16;5075094;28;20041;-79
2022/06/05 18:49:28;;;;;;;0.10;0.10;;;;;;;29.04;36.26;100194.13;5074214;28;20032;-80
2022/06/05 18:51:57;;;;;;;0.10;0.10;;;;;;;29.14;36.25;100198.50;5075143;28;20452;-78
2022/06/05 18:54:29;;;;;;;0.00;0.00;;;;;;;29.18;38.03;100189.69;5075134;28;20104;-79
2022/06/05 18:57:04;;;;;;;0.10;0.10;;;;;;;29.13;37.98;100199.75;5073733;28;20037;-79
2022/06/05 18:59:34;;;;;;;0.10;0.10;;;;;;;29.10;38.38;100185.66;5073914;28;20032;-79
2022/06/05 19:02:09;;;;;;;0.10;0.10;;;;;;;29.15;38.12;100185.75;5074897;28;20493;-77
2022/06/05 19:04:54;;;;;;;0.10;0.10;;;;;;;29.05;37.96;100172.78;5073671;28;20347;-79
2022/06/05 19:07:46;;;;;;;0.10;0.10;;;;;;;29.03;37.97;100181.09;5074923;28;20060;-77
2022/06/05 19:10:16;;;;;;;0.10;0.10;;;;;;;29.04;37.70;100191.28;5051392;28;20442;-79
2022/06/05 19:12:53;;;;;;;0.10;0.10;;;;;;;29.01;37.39;100194.31;5073653;28;20024;-79
2022/06/05 19:15:48;;;;;;;0.10;0.10;;;;;;;28.90;37.84;100186.25;5072462;28;20520;-78
2022/06/05 19:18:27;;;;;;;0.10;0.10;;;;;;;28.86;37.88;100179.91;5073719;28;20477;-78
2022/06/05 19:21:26;;;;;;;0.10;0.10;;;;;;;28.77;37.39;100165.69;5075175;28;20514;-79
2022/06/05 19:23:56;;;;;;;0.10;0.10;;;;;;;28.82;37.01;100173.63;5059027;28;20052;-79
2022/06/05 19:26:26;;;;;;;0.10;0.10;;;;;;;28.76;36.74;100175.53;5074015;28;20033;-79
2022/06/05 19:28:56;;;;;;;0.10;0.10;;;;;;;28.84;36.64;100185.34;5074551;28;20028;-79
2022/06/05 19:31:21;;;;;;;0.10;0.10;;;;;;;28.73;37.34;100190.84;5074612;28;20111;-78
2022/06/05 19:33:47;;;;;;;0.10;0.10;;;;;;;28.52;37.64;100167.00;5073513;28;20071;-79
2022/06/05 19:39:27;;;;;;;0.10;0.10;;;;;;;28.51;36.84;100174.00;5074652;28;20520;-79
2022/06/05 19:41:53;;;;;;;0.10;0.10;;;;;;;28.48;36.12;100184.34;5072991;28;20466;-78
2022/06/05 19:44:33;;;;;;;0.10;0.10;;;;;;;28.44;36.82;100172.28;5073214;28;20029;-79
2022/06/05 19:47:28;;;;;;;0.10;0.10;;;;;;;28.39;36.47;100182.34;5073321;28;20536;-79
2022/06/05 19:50:06;;;;;;;0.10;0.10;;;;;;;28.42;36.10;100175.63;5074228;28;20035;-79
2022/06/05 19:52:43;;;;;;;0.10;0.10;;;;;;;28.11;38.32;100183.72;5073758;28;20044;-81
2022/06/05 19:55:28;;;;;;;0.10;0.10;;;;;;;27.77;39.56;100182.91;5072614;28;20037;-78
2022/06/05 19:57:54;;;;;;;0.10;0.10;;;;;;;27.74;38.83;100175.28;5072766;28;20039;-76
2022/06/05 20:00:19;;;;;;;0.10;0.10;;;;;;;27.79;38.66;100188.16;5074597;28;20366;-79
2022/06/05 20:02:51;;;;;;;0.10;0.10;;;;;;;27.62;39.29;100185.63;5073207;28;20090;-79
2022/06/05 20:05:27;;;;;;;0.10;0.10;;;;;;;27.72;41.01;100180.72;5073229;28;20017;-78
2022/06/05 20:08:01;;;;;;;0.10;0.10;;;;;;;27.76;41.95;100171.97;5073161;28;20096;-78
2022/06/05 20:10:33;;;;;;;0.10;0.10;;;;;;;27.53;43.15;100167.72;5073358;28;20032;-79
2022/06/05 20:13:25;;;;;;;0.10;0.10;;;;;;;27.44;43.72;100170.63;5072545;28;20028;-79
2022/06/05 20:16:01;;;;;;;0.10;0.10;;;;;;;27.40;43.79;100163.00;5064157;28;20049;-79
2022/06/05 20:18:31;;;;;;;0.10;0.10;;;;;;;27.49;43.91;100172.81;5073289;28;20103;-80
2022/06/05 20:21:08;;;;;;;0.10;0.10;;;;;;;27.46;42.84;100168.06;5072988;28;20075;-78
2022/06/05 20:23:55;;;;;;;0.10;0.10;;;;;;;27.64;43.45;100182.28;5057187;28;20467;-78
2022/06/05 20:26:26;;;;;;;0.10;0.10;;;;;;;27.69;43.37;100171.00;5073689;28;20466;-79
2022/06/05 20:29:16;;;;;;;0.10;0.10;;;;;;;27.32;43.02;100124.59;5072421;28;20526;-79
2022/06/05 20:31:51;;;;;;;0.10;0.10;;;;;;;27.65;42.49;100158.97;5072798;28;20024;-78
2022/06/05 20:34:25;;;;;;;0.10;0.10;;;;;;;27.60;40.71;100159.59;5072904;28;20071;-78
2022/06/05 20:36:58;;;;;;;0.10;0.10;;;;;;;27.28;40.54;100146.84;5074030;28;20024;-79
2022/06/05 20:39:48;;;;;;;0.10;0.10;;;;;;;27.45;39.67;100175.84;5073787;28;20422;-78
2022/06/05 20:42:18;;;;;;;0.10;0.10;;;;;;;27.52;39.36;100166.13;5073718;28;20032;-78
2022/06/05 20:45:09;;;;;;;0.10;0.10;;;;;;;27.43;39.29;100141.22;5072781;28;20075;-78
2022/06/05 20:48:02;;;;;;;0.10;0.10;;;;;;;27.30;39.37;100144.28;5072091;28;20037;-80
2022/06/05 20:50:52;;;;;;;0.10;0.10;;;;;;;27.29;40.02;100154.13;5031351;28;20036;-79
2022/06/05 20:53:22;;;;;;;0.10;0.10;;;;;;;27.29;40.31;100154.13;5073593;28;20047;-80
2022/06/05 20:56:03;;;;;;;0.10;0.10;;;;;;;27.34;39.56;100149.84;5071887;28;20028;-81
2022/06/05 20:58:56;;;;;;;0.10;0.10;;;;;;;27.42;38.66;100151.06;5072729;28;20025;-78
2022/06/05 21:01:22;;;;;;;0.10;0.10;;;;;;;27.42;38.94;100151.06;5073639;28;20025;-79
2022/06/05 21:10:06;;;;;;;0.10;0.10;;;;;;;27.35;39.54;100140.00;5031177;28;20042;-80
2022/06/05 21:18:08;;;;;;;0.10;0.10;;;;;;;27.51;40.04;100141.69;5073073;28;20410;-79
2022/06/05 21:20:38;;;;;;;0.10;0.10;;;;;;;27.50;39.43;100129.47;5071628;28;20020;-77
2022/06/05 21:23:08;;;;;;;0.10;0.10;;;;;;;27.44;39.46;100119.97;5055392;28;20036;-79
2022/06/05 21:25:40;;;;;;;0.10;0.10;;;;;;;27.57;39.61;100128.34;5071828;28;20025;-79
2022/06/05 21:28:15;;;;;;;0.10;0.10;;;;;;;27.51;39.56;100124.56;5073046;28;20039;-78
2022/06/05 21:30:51;;;;;;;0.10;0.10;;;;;;;27.50;39.63;100112.34;5072769;28;20028;-78
2022/06/05 21:33:17;;;;;;;0.10;0.10;;;;;;;27.43;39.59;100095.50;5073328;28;20028;-79
2022/06/05 21:35:55;;;;;;;0.10;0.10;;;;;;;27.58;39.04;100107.84;5071779;28;20559;-79
2022/06/05 21:38:36;;;;;;;0.10;0.10;;;;;;;27.49;38.36;100095.69;5073605;28;20033;-78
2022/06/05 21:41:58;;;;;;;0.10;0.10;;;;;;;27.38;37.85;100088.41;5076324;28;20024;-78
2022/06/05 21:44:22;;;;;;;0.10;0.10;;;;;;;27.42;37.53;100091.88;5070936;28;20029;-79
2022/06/05 21:46:59;;;;;;;0.10;0.10;;;;;;;27.40;37.24;100088.72;5074857;28;20032;-80
2022/06/05 21:49:28;;;;;;;0.10;0.10;;;;;;;27.46;37.33;100108.84;5075428;28;20435;-78
2022/06/05 21:51:56;;;;;;;0.10;0.10;;;;;;;27.45;37.25;100090.13;5076630;28;20045;-79
2022/06/05 21:54:27;;;;;;;0.10;0.10;;;;;;;27.32;37.57;100078.88;5075238;28;20027;-79
2022/06/05 21:56:57;;;;;;;0.10;0.10;;;;;;;27.40;37.05;100088.72;5074952;28;20059;-79
2022/06/05 21:59:22;;;;;;;0.10;0.10;;;;;;;27.47;36.92;100095.34;5076297;28;20024;-79
2022/06/05 22:01:48;;;;;;;0.10;0.10;;;;;;;27.24;37.05;100065.44;5074871;28;20036;-78
2022/06/05 22:04:14;;;;;;;0.10;0.10;;;;;;;27.41;36.20;100086.63;5074999;28;20029;-78
2022/06/05 22:06:42;;;;;;;0.10;0.10;;;;;;;27.40;36.43;100091.56;5075057;28;20032;-79
2022/06/05 22:09:13;;;;;;;0.10;0.10;;;;;;;27.39;36.55;100078.56;5075314;28;20024;-80
2022/06/05 22:11:40;;;;;;;0.10;0.10;;;;;;;27.42;36.54;100076.78;5074538;28;20029;-78
2022/06/05 22:14:11;;;;;;;0.10;0.10;;;;;;;27.32;36.54;100072.38;5058175;28;20531;-79
2022/06/05 22:16:39;;;;;;;0.10;0.10;;;;;;;27.26;36.58;100062.88;5076784;28;20077;-78
2022/06/05 22:19:06;;;;;;;0.10;0.10;;;;;;;27.27;36.85;100061.59;5074590;28;20020;-79
2022/06/05 22:21:33;;;;;;;0.10;0.10;;;;;;;27.28;36.74;100066.06;5076477;28;20111;-80
2022/06/05 22:24:02;;;;;;;0.10;0.10;;;;;;;27.30;36.62;100067.16;5074950;28;20430;-79
2022/06/05 22:26:28;;;;;;;0.10;0.10;;;;;;;27.45;36.09;100081.56;5075259;28;20062;-76
2022/06/05 22:28:54;;;;;;;0.10;0.10;;;;;;;27.53;35.43;100077.06;5074313;28;20036;-79
2022/06/05 22:31:19;;;;;;;0.10;0.10;;;;;;;27.36;36.05;100073.00;5075463;28;20067;-80
2022/06/05 22:33:45;;;;;;;0.10;0.10;;;;;;;27.32;35.48;100063.81;5076098;28;20378;-78
2022/06/05 22:36:11;;;;;;;0.10;0.10;;;;;;;27.23;35.71;100058.16;5075432;28;20097;-79
2022/06/05 22:38:36;;;;;;;0.10;0.10;;;;;;;27.17;35.34;100065.78;5074801;28;20070;-79
2022/06/05 22:41:05;;;;;;;0.10;0.10;;;;;;;27.02;34.55;100075.00;5074716;28;20033;-80
2022/06/05 22:43:30;;;;;;;0.10;0.10;;;;;;;26.90;34.71;100076.75;5074432;28;20032;-78
2022/06/05 22:45:56;;;;;;;0.10;0.10;;;;;;;26.95;35.32;100069.59;5074221;28;20039;-79
2022/06/05 22:48:24;;;;;;;0.10;0.10;;;;;;;27.01;35.21;100064.06;5074265;28;20035;-79
2022/06/05 22:50:58;;;;;;;0.10;0.10;;;;;;;27.07;34.84;100060.09;5074227;28;20581;-79
2022/06/05 22:53:26;;;;;;;0.10;0.10;;;;;;;27.06;35.26;100061.34;5074140;28;20035;-80
2022/06/05 22:55:52;;;;;;;0.10;0.10;;;;;;;27.09;35.16;100059.59;5075740;28;20029;-79
2022/06/05 22:58:18;;;;;;;0.10;0.10;;;;;;;27.02;35.22;100057.84;5074358;28;20044;-79
2022/06/05 23:00:48;;;;;;;0.10;0.10;;;;;;;26.85;35.08;100022.38;5073374;28;20044;-79
2022/06/05 23:03:21;;;;;;;0.10;0.10;;;;;;;26.85;35.24;100039.50;5075266;28;20031;-79
2022/06/05 23:05:47;;;;;;;0.10;0.10;;;;;;;26.89;35.41;100034.41;5074845;28;20402;-77
2022/06/05 23:08:13;;;;;;;0.10;0.10;;;;;;;26.90;35.18;100030.31;5074415;28;20021;-80
2022/06/05 23:10:39;;;;;;;0.10;0.10;;;;;;;26.95;35.45;100026.78;5074020;28;20478;-77
2022/06/05 23:13:09;;;;;;;0.10;0.10;;;;;;;26.99;35.73;100032.31;5074882;28;20031;-79
2022/06/05 23:15:37;;;;;;;0.10;0.10;;;;;;;26.99;35.82;100021.69;5075624;28;20095;-78
2022/06/05 23:18:04;;;;;;;0.10;0.10;;;;;;;27.10;35.75;100022.00;5074020;28;20375;-79
2022/06/05 23:20:30;;;;;;;0.10;0.10;;;;;;;27.11;35.38;100012.19;5075004;28;20036;-78
2022/06/05 23:22:56;;;;;;;0.10;0.10;;;;;;;27.09;35.09;100003.28;5073929;28;20036;-80
2022/06/05 23:25:22;;;;;;;0.10;0.10;;;;;;;27.20;34.80;100005.63;5073611;28;20454;-79
2022/06/05 23:27:47;;;;;;;0.10;0.10;;;;;;;27.05;35.13;100014.06;5073846;28;20066;-80
2022/06/05 23:30:14;;;;;;;0.10;0.10;;;;;;;27.04;34.93;100009.63;5073497;28;20474;-79
2022/06/05 23:32:39;;;;;;;0.10;0.10;;;;;;;26.97;34.55;100012.81;5073376;28;20029;-81
2022/06/05 23:35:06;;;;;;;0.10;0.10;;;;;;;26.96;34.67;100014.09;5073914;28;20035;-79
2022/06/05 23:37:32;;;;;;;0.10;0.10;;;;;;;27.02;33.86;100002.81;5073894;28;20390;-78
2022/06/05 23:40:04;;;;;;;0.10;0.10;;;;;;;27.06;33.83;100009.94;5074642;28;20029;-79
2022/06/05 23:42:34;;;;;;;0.10;0.10;;;;;;;27.00;34.36;100000.44;5073526;28;20043;-80
2022/06/05 23:45:02;;;;;;;0.10;0.10;;;;;;;27.02;34.05;100006.47;5073054;28;20028;-78
2022/06/05 23:47:28;;;;;;;0.10;0.10;;;;;;;26.98;33.77;100011.56;5073173;28;20411;-79
2022/06/05 23:49:53;;;;;;;0.10;0.10;;;;;;;26.97;34.24;100018.53;5072813;28;20124;-77
2022/06/05 23:52:19;;;;;;;0.10;0.10;;;;;;;26.93;34.32;100014.25;5072593;28;20178;-80
2022/06/05 23:54:44;;;;;;;0.10;0.10;;;;;;;26.82;34.53;100003.34;5072896;28;20356;-79
2022/06/05 23:57:28;;;;;;;0.10;0.10;;;;;;;26.89;34.85;100023.78;5074212;28;20028;-79
2022/06/05 23:59:55;;;;;;;0.10;0.10;;;;;;;26.83;34.60;100024.91;5073747;28;20029;-78
